Accueil
METAR-TAF:

METAR-TAF

Aéroports :

Reus, Espagne

Aéroport de Reus

latitude: 41-09N, longitude: 001-10E, altitude: 71 m

Observation

Le bulletin a été fait il y a 25 minutes, à 10:30 UTC
Vent calme
Température 17°C
Humidité 59%
Pression 1017 hPa
Visibilité 10 km ou plus
pas de nuages en-dessous de 1500 mètres et pas de cumulonimbus.

METAR: LERS 221030Z 00000KT CAVOK 17/09 Q1017

Heure: 11:55 (10:55 UTC)

Prévision

Le bulletin a été fait il y a 2 heures et 55 minutes, à 08:00 UTC
Prévision valable du 22 à 09 UTC au 23 à 09 UTC
Vent 4 kt de direction variable
Visibilité 10 km ou plus
pas de nuages en-dessous de 1500 mètres et pas de cumulonimbus.
Temporairement
du 22 à 12 UTC au 22 à 19 UTC
Vent 8 kt de sud/sud-ouest

TAF: LERS 220800Z 2209/2309 VRB04KT CAVOK TX19/2213Z TN06/2306Z TEMPO 2212/2219 20008KT

Observations et prévisions météorologiques de plus de 4000 aéroports (messages METAR et TAF).

Les stations disponibles sont représentées par des disques jaunes et rouges sur la carte.

Passer la souris dessus pour voir le nom de la station.

Cliquer dessus pour voir les observations et prévisions météorologiques.

Pour changer de carte: cliquez sur les boutons verts avec une croix noire pour zoomer, sur le bouton vert avec un tiret pour effectuer un zoom arrière, ou sur les flèches vertes pour les cartes adjacentes.


METAR-TAF: